Time;durP1;ratioP1;P1;durP2;ratioP2;P2;SDS_P1;SDS_P2;PMS_P1;PMS_P2;Temp;Humidity;BMP_temperature;BMP_pressure;BME280_temperature;BME280_humidity;BME280_pressure;Samples;Min_cycle;Max_cycle;Signal;HPM_P1;HPM_P2
2023/10/25 00:02:51;;;;;;;0.80;0.60;;;;;;;17.41;100.00;100101.88;10289083;28;20054;-83
2023/10/25 00:07:54;;;;;;;0.20;0.20;;;;;;;17.62;100.00;100092.00;10287575;28;20498;-84
2023/10/25 00:12:56;;;;;;;1.20;0.57;;;;;;;17.61;100.00;100092.88;10287487;28;20058;-82
2023/10/25 00:17:57;;;;;;;0.00;0.00;;;;;;;18.59;100.00;100093.78;10287452;28;20090;-82
2023/10/25 00:22:59;;;;;;;0.52;0.43;;;;;;;18.39;100.00;100089.81;10285281;28;20510;-82
2023/10/25 00:28:00;;;;;;;0.13;0.13;;;;;;;18.26;100.00;100102.22;10284395;28;20047;-82
2023/10/25 00:33:02;;;;;;;1.80;0.43;;;;;;;18.19;100.00;100105.84;10274342;28;20079;-82
2023/10/25 00:38:04;;;;;;;0.10;0.10;;;;;;;18.18;100.00;100104.97;10283611;28;20061;-83
2023/10/25 00:43:16;;;;;;;0.20;0.20;;;;;;;17.66;100.00;100117.13;10279316;28;20058;-83
2023/10/25 00:48:18;;;;;;;0.10;0.10;;;;;;;16.64;100.00;100116.75;10284093;28;20439;-82
2023/10/25 00:53:20;;;;;;;0.20;0.20;;;;;;;17.20;100.00;100115.19;10288661;28;20043;-84
2023/10/25 00:58:23;;;;;;;0.00;0.00;;;;;;;17.40;100.00;100107.09;10273477;28;20039;-84
2023/10/25 01:03:25;;;;;;;0.30;0.30;;;;;;;16.49;100.00;100102.16;10288504;28;20133;-82
2023/10/25 01:08:26;;;;;;;0.00;0.00;;;;;;;16.60;100.00;100098.59;10271681;28;20051;-84
2023/10/25 01:13:28;;;;;;;0.22;0.22;;;;;;;16.71;100.00;100099.34;10276264;28;20046;-82
2023/10/25 01:18:30;;;;;;;0.00;0.00;;;;;;;16.57;100.00;100093.44;10274605;28;20043;-81
2023/10/25 01:23:32;;;;;;;16.05;0.57;;;;;;;16.59;100.00;100094.25;10292452;28;20077;-82
2023/10/25 01:28:33;;;;;;;0.00;0.00;;;;;;;17.17;100.00;100091.81;10291724;28;20417;-82
2023/10/25 01:33:35;;;;;;;0.20;0.20;;;;;;;16.90;100.00;100093.88;10289987;28;20049;-82
2023/10/25 01:38:36;;;;;;;0.25;0.22;;;;;;;17.06;100.00;100085.03;10289880;28;20070;-81
2023/10/25 01:43:38;;;;;;;0.73;0.50;;;;;;;17.43;100.00;100081.88;10290880;28;20050;-82
2023/10/25 01:48:39;;;;;;;0.40;0.20;;;;;;;17.62;100.00;100084.19;10282591;28;20471;-82
2023/10/25 01:53:41;;;;;;;0.65;0.45;;;;;;;17.89;100.00;100080.25;10290467;28;20199;-83
2023/10/25 01:58:43;;;;;;;0.30;0.20;;;;;;;16.68;100.00;100078.56;10278153;28;20390;-83
2023/10/25 02:03:44;;;;;;;0.00;0.00;;;;;;;17.41;100.00;100078.44;10277951;28;20073;-83
2023/10/25 02:08:46;;;;;;;0.10;0.10;;;;;;;17.28;100.00;100075.16;10292592;28;20386;-84
2023/10/25 02:13:48;;;;;;;0.32;0.20;;;;;;;17.51;100.00;100063.50;10272252;28;20106;-82
2023/10/25 02:18:49;;;;;;;0.10;0.10;;;;;;;17.28;100.00;100048.28;10283465;28;20039;-82
2023/10/25 02:23:53;;;;;;;0.00;0.00;;;;;;;17.34;100.00;100042.97;10286828;28;20047;-82
2023/10/25 02:28:55;;;;;;;0.68;0.35;;;;;;;17.81;100.00;100042.19;10289611;28;20070;-82
2023/10/25 02:33:57;;;;;;;0.05;0.05;;;;;;;17.28;100.00;100043.91;10289465;28;20533;-83
2023/10/25 02:38:58;;;;;;;0.00;0.00;;;;;;;17.36;100.00;100030.78;10275396;28;20066;-82
2023/10/25 02:44:01;;;;;;;0.20;0.15;;;;;;;17.25;100.00;100025.75;10288618;28;20342;-82
2023/10/25 02:49:02;;;;;;;0.00;0.00;;;;;;;16.96;100.00;100031.38;10280940;28;20062;-83
2023/10/25 02:54:05;;;;;;;0.20;0.20;;;;;;;16.80;100.00;100028.97;10280670;28;20125;-82
2023/10/25 02:59:06;;;;;;;0.00;0.00;;;;;;;17.79;100.00;100010.09;10284349;28;20608;-82
2023/10/25 03:04:08;;;;;;;0.10;0.10;;;;;;;17.32;100.00;100008.28;10292426;28;20105;-83
2023/10/25 03:09:10;;;;;;;0.28;0.20;;;;;;;17.54;100.00;99997.50;10290719;28;20050;-83
2023/10/25 03:14:11;;;;;;;0.25;0.20;;;;;;;17.08;100.00;100015.63;10289200;28;20466;-81
2023/10/25 03:19:13;;;;;;;0.20;0.20;;;;;;;17.09;100.00;100016.47;10285728;28;20046;-81
2023/10/25 03:24:14;;;;;;;0.00;0.00;;;;;;;16.97;100.00;100001.88;10288625;28;20054;-81
2023/10/25 03:29:16;;;;;;;0.10;0.10;;;;;;;16.84;100.00;99976.91;10285160;28;20058;-82
2023/10/25 03:34:18;;;;;;;0.10;0.10;;;;;;;16.73;100.00;99988.31;10273008;28;20093;-81
2023/10/25 03:39:20;;;;;;;0.00;0.00;;;;;;;16.76;100.00;99983.09;10274167;28;20074;-82
2023/10/25 03:44:22;;;;;;;0.17;0.08;;;;;;;16.95;100.00;99982.81;10267443;28;20054;-81
2023/10/25 03:49:23;;;;;;;0.13;0.13;;;;;;;17.24;100.00;99978.91;10284369;28;20078;-82
2023/10/25 03:54:26;;;;;;;0.00;0.00;;;;;;;17.54;100.00;99971.44;10293607;28;20047;-83
2023/10/25 03:59:27;;;;;;;0.10;0.10;;;;;;;16.46;100.00;99969.63;10285142;28;20046;-82
2023/10/25 04:04:29;;;;;;;0.30;0.10;;;;;;;16.50;100.00;99967.84;10284647;28;20458;-83
2023/10/25 04:09:31;;;;;;;1.15;0.30;;;;;;;17.00;100.00;99961.94;10287231;28;20034;-83
2023/10/25 04:14:32;;;;;;;0.60;0.40;;;;;;;16.94;100.00;99962.94;10303495;28;20525;-83
2023/10/25 04:19:34;;;;;;;0.17;0.10;;;;;;;16.86;100.00;99954.34;10286802;28;20051;-83
2023/10/25 04:24:35;;;;;;;1.25;0.80;;;;;;;17.37;100.00;99949.19;10286571;28;20105;-81
2023/10/25 04:29:37;;;;;;;0.00;0.00;;;;;;;17.39;100.00;99946.56;10271965;28;20674;-82
2023/10/25 04:34:38;;;;;;;0.22;0.20;;;;;;;16.93;100.00;99950.78;10286350;28;20051;-81
2023/10/25 04:39:40;;;;;;;0.10;0.10;;;;;;;16.80;100.00;99948.34;10287699;28;20054;-81
2023/10/25 04:44:42;;;;;;;0.00;0.00;;;;;;;16.36;100.00;99946.38;10299909;28;20053;-81
2023/10/25 04:49:43;;;;;;;0.20;0.15;;;;;;;16.95;100.00;99930.78;10272882;28;20043;-81
2023/10/25 04:54:45;;;;;;;0.22;0.13;;;;;;;17.18;100.00;99932.16;10283729;28;20106;-82
2023/10/25 04:59:46;;;;;;;0.20;0.20;;;;;;;16.72;100.00;99921.56;10290156;28;20035;-81
2023/10/25 05:04:48;;;;;;;0.00;0.00;;;;;;;16.99;100.00;99916.88;10291223;28;20050;-81
2023/10/25 05:09:50;;;;;;;0.00;0.00;;;;;;;17.22;100.00;99916.47;10281076;28;20046;-83
2023/10/25 05:14:52;;;;;;;0.20;0.20;;;;;;;17.21;100.00;99911.31;10291392;28;20147;-83
2023/10/25 05:19:54;;;;;;;0.28;0.15;;;;;;;17.40;100.00;99906.63;10297289;28;20047;-82
2023/10/25 05:24:55;;;;;;;0.35;0.13;;;;;;;17.35;100.00;99900.66;10297267;28;20046;-81
2023/10/25 05:30:03;;;;;;;0.75;0.47;;;;;;;17.11;100.00;99901.03;10285327;28;20086;-81
2023/10/25 05:35:05;;;;;;;1.05;0.30;;;;;;;16.94;100.00;99903.09;10294848;28;20315;-82
2023/10/25 05:40:08;;;;;;;0.15;0.15;;;;;;;16.99;100.00;99895.19;10283314;28;20043;-81
2023/10/25 05:45:10;;;;;;;0.88;0.63;;;;;;;17.26;100.00;99899.94;10285644;28;20067;-82
2023/10/25 05:50:12;;;;;;;0.10;0.10;;;;;;;16.70;100.00;99899.97;10287959;28;20042;-82
2023/10/25 05:55:15;;;;;;;0.60;0.60;;;;;;;17.24;100.00;99895.59;10285253;28;20167;-82
2023/10/25 06:00:17;;;;;;;0.55;0.40;;;;;;;17.00;100.00;99904.72;10289473;28;20137;-82
2023/10/25 06:05:19;;;;;;;0.40;0.38;;;;;;;17.47;100.00;99900.41;10286157;28;20138;-82
2023/10/25 06:10:21;;;;;;;0.25;0.10;;;;;;;17.79;100.00;99892.84;10289766;28;20047;-81
2023/10/25 06:15:23;;;;;;;0.20;0.20;;;;;;;17.52;100.00;99895.13;10289579;28;20125;-83
2023/10/25 06:20:24;;;;;;;0.85;0.17;;;;;;;17.75;100.00;99887.72;10288738;28;20121;-81
2023/10/25 06:25:27;;;;;;;1.40;0.40;;;;;;;17.56;100.00;99886.34;10286602;28;20055;-82
2023/10/25 06:30:28;;;;;;;0.10;0.10;;;;;;;17.87;100.00;99880.53;10288215;28;20050;-82
2023/10/25 06:35:30;;;;;;;0.20;0.20;;;;;;;17.86;100.00;99871.00;10279046;28;20113;-81
2023/10/25 06:40:31;;;;;;;0.75;0.10;;;;;;;18.00;100.00;99861.19;10291229;28;20089;-82
2023/10/25 06:45:33;;;;;;;1.17;0.38;;;;;;;17.70;100.00;99866.09;10280482;28;20112;-82
2023/10/25 06:50:35;;;;;;;0.30;0.22;;;;;;;17.86;100.00;99851.03;10271777;28;20066;-84
2023/10/25 06:55:37;;;;;;;0.28;0.28;;;;;;;18.19;100.00;99842.53;10279208;28;20097;-81
2023/10/25 07:00:39;;;;;;;0.55;0.30;;;;;;;17.74;100.00;99839.13;10285906;28;20062;-81
2023/10/25 07:05:42;;;;;;;0.10;0.10;;;;;;;17.48;100.00;99823.16;10270684;28;20043;-82
2023/10/25 07:10:44;;;;;;;0.77;0.60;;;;;;;18.27;100.00;99811.06;10280748;28;20042;-82
2023/10/25 07:15:47;;;;;;;1.75;0.45;;;;;;;18.03;100.00;99809.00;10302953;28;20050;-81
2023/10/25 07:20:50;;;;;;;0.20;0.20;;;;;;;18.01;100.00;99797.75;10288870;28;20061;-83
2023/10/25 07:25:52;;;;;;;0.32;0.20;;;;;;;18.57;100.00;99803.41;10289406;28;20046;-81
2023/10/25 07:30:54;;;;;;;0.30;0.30;;;;;;;18.60;100.00;99793.75;10291511;28;20074;-82
2023/10/25 07:35:55;;;;;;;1.67;0.40;;;;;;;18.83;100.00;99789.69;10289724;28;20116;-81
2023/10/25 07:40:57;;;;;;;0.45;0.20;;;;;;;19.50;100.00;99789.66;10263310;28;20558;-82
2023/10/25 07:45:58;;;;;;;0.85;0.55;;;;;;;18.38;100.00;99783.00;10285772;28;20046;-82
2023/10/25 07:51:04;;;;;;;0.38;0.17;;;;;;;19.15;100.00;99769.75;10275237;28;20050;-80
2023/10/25 07:56:06;;;;;;;0.00;0.00;;;;;;;18.79;100.00;99761.97;10276428;28;20050;-80
2023/10/25 08:01:12;;;;;;;0.00;0.00;;;;;;;19.06;100.00;99759.53;10280803;28;20055;-81
2023/10/25 08:06:13;;;;;;;1.60;0.88;;;;;;;18.82;100.00;99747.09;10285682;28;20569;-82
2023/10/25 08:11:15;;;;;;;0.80;0.60;;;;;;;18.25;100.00;99740.72;10299452;28;20042;-82
2023/10/25 08:16:17;;;;;;;0.00;0.00;;;;;;;18.73;100.00;99736.06;10259165;28;20054;-80
2023/10/25 08:21:18;;;;;;;0.38;0.22;;;;;;;18.95;100.00;99721.53;10280335;28;20173;-80
2023/10/25 08:26:21;;;;;;;0.10;0.10;;;;;;;19.12;100.00;99730.66;10287642;28;20050;-83
2023/10/25 08:31:23;;;;;;;0.55;0.35;;;;;;;18.47;100.00;99724.53;10284080;28;20152;-81
2023/10/25 08:36:28;;;;;;;0.40;0.40;;;;;;;19.24;100.00;99717.28;10268318;28;20844;-81
2023/10/25 08:41:30;;;;;;;0.10;0.10;;;;;;;18.18;100.00;99718.31;10285621;28;20050;-80
2023/10/25 08:46:33;;;;;;;0.17;0.17;;;;;;;18.16;100.00;99715.75;10284801;28;20043;-82
2023/10/25 08:51:35;;;;;;;0.30;0.30;;;;;;;18.26;100.00;99716.38;10279686;28;20058;-81
2023/10/25 08:56:37;;;;;;;2.20;0.20;;;;;;;19.00;100.00;99714.47;10280950;28;20034;-81
2023/10/25 09:01:38;;;;;;;0.22;0.20;;;;;;;18.25;100.00;99714.66;10278270;28;20589;-80
2023/10/25 09:06:40;;;;;;;0.95;0.82;;;;;;;18.13;100.00;99709.75;10261165;28;20054;-82
2023/10/25 09:11:44;;;;;;;0.00;0.00;;;;;;;19.16;100.00;99696.59;10263701;28;20078;-81
2023/10/25 09:16:47;;;;;;;0.85;0.35;;;;;;;18.81;100.00;99687.09;10278786;28;20450;-81
2023/10/25 09:21:49;;;;;;;1.50;0.30;;;;;;;19.25;100.00;99666.72;10281716;28;20402;-81
2023/10/25 09:26:54;;;;;;;0.10;0.00;;;;;;;18.71;100.00;99670.84;10283185;28;20047;-82
2023/10/25 09:32:05;;;;;;;0.20;0.17;;;;;;;20.00;100.00;99656.63;10291299;28;20823;-82
2023/10/25 09:37:07;;;;;;;0.00;0.00;;;;;;;18.78;100.00;99655.91;10292291;28;20510;-80
2023/10/25 09:42:15;;;;;;;0.40;0.40;;;;;;;18.76;100.00;99652.47;10298505;28;20057;-81
2023/10/25 09:47:18;;;;;;;0.20;0.20;;;;;;;19.13;100.00;99635.78;10288716;28;20043;-81
2023/10/25 09:52:25;;;;;;;0.00;0.00;;;;;;;19.06;100.00;99629.03;10289984;28;20106;-80
2023/10/25 09:57:29;;;;;;;0.20;0.15;;;;;;;18.96;100.00;99638.91;10290640;28;20093;-82
2023/10/25 10:03:00;;;;;;;1.73;0.60;;;;;;;18.76;100.00;99631.59;10287532;28;20057;-81
2023/10/25 10:08:14;;;;;;;0.17;0.15;;;;;;;18.55;100.00;99613.06;10288898;28;20054;-83
2023/10/25 10:13:22;;;;;;;1.02;0.55;;;;;;;20.09;100.00;99611.88;10285643;28;20082;-84
2023/10/25 10:18:27;;;;;;;0.00;0.00;;;;;;;20.59;100.00;99590.91;10281345;28;20051;-83
2023/10/25 10:23:38;;;;;;;0.15;0.15;;;;;;;20.04;100.00;99592.88;10289765;28;20056;-82
2023/10/25 10:28:42;;;;;;;1.15;0.47;;;;;;;20.08;100.00;99589.25;10287743;28;20053;-82
2023/10/25 10:33:48;;;;;;;0.10;0.10;;;;;;;19.81;100.00;99578.81;10290933;28;20536;-84
2023/10/25 10:39:09;;;;;;;0.22;0.13;;;;;;;20.54;100.00;99560.63;10265535;28;20418;-84
2023/10/25 10:44:11;;;;;;;0.90;0.30;;;;;;;20.24;100.00;99552.97;10289636;28;20088;-82
2023/10/25 10:49:16;;;;;;;0.30;0.30;;;;;;;21.22;100.00;99540.56;10288059;28;20098;-83
2023/10/25 10:54:18;;;;;;;0.13;0.10;;;;;;;20.10;100.00;99537.75;10286567;28;20054;-83
2023/10/25 10:59:19;;;;;;;0.10;0.10;;;;;;;19.64;100.00;99527.13;10279050;28;20042;-83
2023/10/25 11:04:21;;;;;;;0.73;0.73;;;;;;;20.65;100.00;99520.97;10283781;28;20584;-84
2023/10/25 11:09:22;;;;;;;1.45;0.30;;;;;;;19.34;100.00;99530.69;10277368;28;20138;-82
2023/10/25 11:14:24;;;;;;;0.00;0.00;;;;;;;20.87;100.00;99511.41;10280132;28;20059;-83
2023/10/25 11:19:27;;;;;;;0.00;0.00;;;;;;;20.84;100.00;99506.28;10278334;28;20039;-83
2023/10/25 11:24:30;;;;;;;3.30;0.28;;;;;;;21.32;100.00;99503.53;10281209;28;20042;-83
2023/10/25 11:29:32;;;;;;;0.52;0.20;;;;;;;20.89;100.00;99493.00;10284587;28;20422;-82
2023/10/25 11:34:34;;;;;;;0.10;0.10;;;;;;;20.34;100.00;99496.78;10281374;28;20057;-84
2023/10/25 11:39:59;;;;;;;0.20;0.20;;;;;;;20.40;100.00;99480.03;10291916;28;20047;-84
2023/10/25 11:45:05;;;;;;;0.20;0.20;;;;;;;19.94;100.00;99467.72;10283196;28;20166;-82
2023/10/25 11:50:08;;;;;;;0.00;0.00;;;;;;;20.68;100.00;99465.88;10284532;28;20379;-82
2023/10/25 11:55:09;;;;;;;0.00;0.00;;;;;;;21.06;100.00;99445.22;10281356;28;20051;-83
2023/10/25 12:00:12;;;;;;;0.10;0.10;;;;;;;20.52;100.00;99445.53;10285507;28;20049;-83
2023/10/25 12:05:14;;;;;;;0.25;0.05;;;;;;;20.98;100.00;99428.97;10292137;28;20509;-83
2023/10/25 12:10:16;;;;;;;0.43;0.13;;;;;;;20.57;100.00;99417.44;10261490;28;20138;-83
2023/10/25 12:15:18;;;;;;;0.30;0.10;;;;;;;20.15;100.00;99410.31;10284907;28;20049;-83
2023/10/25 12:20:19;;;;;;;0.17;0.08;;;;;;;19.95;100.00;99401.47;10276288;28;20042;-84
2023/10/25 12:25:29;;;;;;;1.83;1.73;;;;;;;20.26;100.00;99400.31;10282826;28;20141;-85
2023/10/25 12:30:30;;;;;;;0.22;0.22;;;;;;;19.94;100.00;99389.31;10285619;28;20058;-83
2023/10/25 12:35:32;;;;;;;0.00;0.00;;;;;;;19.59;100.00;99380.97;10283296;28;20043;-83
2023/10/25 12:40:33;;;;;;;0.17;0.15;;;;;;;19.30;100.00;99371.53;10286901;28;20141;-85
2023/10/25 12:45:35;;;;;;;0.10;0.10;;;;;;;19.58;100.00;99353.16;10281955;28;20042;-85
2023/10/25 12:50:37;;;;;;;0.00;0.00;;;;;;;19.34;100.00;99347.88;10271066;28;20071;-85
2023/10/25 12:55:38;;;;;;;0.20;0.20;;;;;;;19.28;100.00;99348.09;10298618;28;20086;-85
2023/10/25 13:00:40;;;;;;;0.00;0.00;;;;;;;20.95;100.00;99335.69;10285185;28;20038;-84
2023/10/25 13:05:41;;;;;;;0.35;0.25;;;;;;;19.34;100.00;99329.59;10291704;28;20039;-83
2023/10/25 13:10:43;;;;;;;0.10;0.10;;;;;;;19.03;100.00;99328.06;10274200;28;20521;-86
2023/10/25 13:15:44;;;;;;;0.00;0.00;;;;;;;19.85;100.00;99308.63;10292888;28;20046;-84
2023/10/25 13:20:47;;;;;;;0.03;0.00;;;;;;;19.95;100.00;99307.38;10285581;28;20043;-85
2023/10/25 13:25:48;;;;;;;0.15;0.05;;;;;;;19.70;100.00;99301.34;10287697;28;20478;-83
2023/10/25 13:30:50;;;;;;;0.73;0.43;;;;;;;19.85;100.00;99298.19;10267964;28;20434;-84
2023/10/25 13:35:51;;;;;;;3.20;0.75;;;;;;;19.86;100.00;99296.44;10284332;28;20062;-84
2023/10/25 13:40:53;;;;;;;0.00;0.00;;;;;;;19.02;100.00;99284.59;10268921;28;20671;-85
2023/10/25 13:45:55;;;;;;;0.00;0.00;;;;;;;20.02;100.00;99283.63;10283107;28;20051;-85
2023/10/25 13:50:56;;;;;;;0.20;0.20;;;;;;;19.77;100.00;99276.72;10301347;28;20097;-85
2023/10/25 13:56:01;;;;;;;0.00;0.00;;;;;;;20.42;100.00;99272.41;10298376;28;20489;-86
2023/10/25 14:01:05;;;;;;;0.13;0.13;;;;;;;20.37;100.00;99260.44;10294740;28;20050;-85
2023/10/25 14:06:09;;;;;;;0.10;0.00;;;;;;;19.71;100.00;99267.34;10292301;28;20085;-85
2023/10/25 14:11:11;;;;;;;0.00;0.00;;;;;;;18.85;100.00;99260.84;10291430;28;20097;-85
2023/10/25 14:16:14;;;;;;;0.03;0.03;;;;;;;18.79;100.00;99258.44;10287691;28;20051;-86
2023/10/25 14:21:19;;;;;;;0.20;0.15;;;;;;;18.99;100.00;99252.53;10287033;28;20054;-87
2023/10/25 14:26:21;;;;;;;0.00;0.00;;;;;;;18.68;100.00;99241.38;10283449;28;20050;-85
2023/10/25 14:31:23;;;;;;;0.00;0.00;;;;;;;17.79;100.00;99233.81;10286316;28;20043;-87
2023/10/25 14:36:24;;;;;;;0.00;0.00;;;;;;;17.49;100.00;99233.84;10286987;28;20137;-85
2023/10/25 14:41:27;;;;;;;0.00;0.00;;;;;;;17.81;100.00;99234.63;10297924;28;20046;-85
2023/10/25 14:46:29;;;;;;;0.00;0.00;;;;;;;18.48;100.00;99233.41;10293454;28;20051;-85
2023/10/25 14:51:31;;;;;;;0.00;0.00;;;;;;;18.14;100.00;99226.66;10289468;28;20042;-84
2023/10/25 14:56:32;;;;;;;0.43;0.32;;;;;;;17.59;100.00;99224.88;10274843;28;20042;-85
2023/10/25 15:01:35;;;;;;;0.17;0.10;;;;;;;17.83;100.00;99220.66;10270314;28;20062;-85
2023/10/25 15:06:37;;;;;;;0.00;0.00;;;;;;;18.33;100.00;99211.28;10270745;28;20141;-86
2023/10/25 15:11:38;;;;;;;0.03;0.03;;;;;;;17.94;100.00;99215.09;10286420;28;20082;-85
2023/10/25 15:16:42;;;;;;;0.20;0.17;;;;;;;18.07;100.00;99200.81;10270737;28;20512;-85
2023/10/25 15:21:43;;;;;;;0.20;0.10;;;;;;;17.85;100.00;99199.75;10277794;28;20054;-86
2023/10/25 15:26:54;;;;;;;0.10;0.10;;;;;;;18.01;100.00;99198.41;10291454;28;20050;-85
2023/10/25 15:31:56;;;;;;;0.25;0.25;;;;;;;17.25;100.00;99194.59;10282003;28;20093;-86
2023/10/25 15:36:58;;;;;;;0.10;0.10;;;;;;;17.41;100.00;99190.66;10290623;28;20058;-86
2023/10/25 15:41:59;;;;;;;0.00;0.00;;;;;;;18.16;100.00;99188.38;10268834;28;20054;-87
2023/10/25 15:47:01;;;;;;;0.20;0.20;;;;;;;17.58;100.00;99189.31;10290544;28;20053;-86
2023/10/25 15:52:03;;;;;;;0.10;0.10;;;;;;;17.53;100.00;99188.59;10287773;28;20061;-86
2023/10/25 15:57:05;;;;;;;0.00;0.00;;;;;;;17.57;100.00;99185.81;10293763;28;20069;-84
2023/10/25 16:02:08;;;;;;;0.00;0.00;;;;;;;17.33;100.00;99192.63;10293991;28;20042;-87
2023/10/25 16:07:11;;;;;;;0.00;0.00;;;;;;;17.43;100.00;99193.19;10287705;28;20138;-85
2023/10/25 16:12:12;;;;;;;0.52;0.22;;;;;;;18.14;100.00;99195.38;10260524;28;20058;-85
2023/10/25 16:17:14;;;;;;;0.00;0.00;;;;;;;18.15;100.00;99179.72;10285401;28;20050;-85
2023/10/25 16:22:17;;;;;;;0.13;0.13;;;;;;;18.51;100.00;99183.72;10286775;28;20053;-85
2023/10/25 16:27:19;;;;;;;0.00;0.00;;;;;;;17.66;100.00;99183.84;10298198;28;20113;-85
2023/10/25 16:32:21;;;;;;;0.15;0.15;;;;;;;18.66;100.00;99177.97;10284855;28;20855;-85
2023/10/25 16:37:23;;;;;;;0.40;0.20;;;;;;;18.59;100.00;99181.72;10285554;28;20046;-84
2023/10/25 16:42:27;;;;;;;0.00;0.00;;;;;;;18.63;100.00;99172.88;10282878;28;20082;-86
2023/10/25 16:47:29;;;;;;;3.50;0.20;;;;;;;18.32;100.00;99179.16;10275430;28;20055;-87
2023/10/25 16:52:31;;;;;;;0.00;0.00;;;;;;;18.19;100.00;99190.91;10302976;28;20059;-86
2023/10/25 16:57:33;;;;;;;0.00;0.00;;;;;;;18.60;100.00;99183.41;10293307;28;20420;-86
2023/10/25 17:02:35;;;;;;;0.08;0.03;;;;;;;17.90;100.00;99193.50;10293082;28;20110;-86
2023/10/25 17:07:37;;;;;;;0.00;0.00;;;;;;;18.18;100.00;99186.59;10285045;28;20061;-86
2023/10/25 17:12:38;;;;;;;0.20;0.10;;;;;;;19.14;100.00;99188.50;10291976;28;20094;-87
2023/10/25 17:17:40;;;;;;;0.55;0.25;;;;;;;18.45;100.00;99194.38;10266386;28;20050;-85
2023/10/25 17:22:41;;;;;;;0.52;0.30;;;;;;;18.57;100.00;99193.97;10290857;28;20047;-85
2023/10/25 17:27:45;;;;;;;0.70;0.50;;;;;;;18.89;100.00;99197.19;10289771;28;20055;-84
2023/10/25 17:32:46;;;;;;;0.00;0.00;;;;;;;18.47;100.00;99192.56;10291199;28;20054;-86
2023/10/25 17:37:48;;;;;;;0.30;0.30;;;;;;;17.82;100.00;99199.88;10285573;28;20062;-85
2023/10/25 17:42:50;;;;;;;0.03;0.03;;;;;;;18.00;100.00;99190.66;10283930;28;20058;-86
2023/10/25 17:47:53;;;;;;;0.30;0.10;;;;;;;18.47;100.00;99193.41;10289554;28;20065;-86
2023/10/25 17:52:55;;;;;;;0.05;0.05;;;;;;;18.06;100.00;99203.47;10290173;28;20078;-87
2023/10/25 17:57:56;;;;;;;1.08;0.80;;;;;;;18.11;100.00;99200.72;10282727;28;20139;-85
2023/10/25 18:02:58;;;;;;;0.68;0.65;;;;;;;17.76;100.00;99206.94;10288761;28;20726;-85
2023/10/25 18:08:00;;;;;;;1.00;0.40;;;;;;;17.50;100.00;99204.28;10283555;28;20387;-86
2023/10/25 18:13:01;;;;;;;1.52;0.57;;;;;;;17.99;100.00;99202.81;10279761;28;20055;-86
2023/10/25 18:18:04;;;;;;;0.30;0.30;;;;;;;17.65;100.00;99213.41;10288560;28;20043;-86
2023/10/25 18:23:06;;;;;;;0.38;0.15;;;;;;;17.89;100.00;99206.59;10272803;28;20066;-86
2023/10/25 18:28:07;;;;;;;0.88;0.57;;;;;;;18.33;100.00;99201.72;10284917;28;20075;-86
2023/10/25 18:33:09;;;;;;;0.10;0.10;;;;;;;18.02;100.00;99205.31;10287649;28;20050;-87
2023/10/25 18:38:11;;;;;;;0.20;0.20;;;;;;;17.86;100.00;99207.53;10279828;28;20418;-85
2023/10/25 18:43:13;;;;;;;0.10;0.10;;;;;;;17.65;100.00;99214.25;10288428;28;20497;-86
2023/10/25 18:48:14;;;;;;;0.25;0.25;;;;;;;17.75;100.00;99205.28;10268906;28;20488;-86
2023/10/25 18:53:16;;;;;;;0.73;0.47;;;;;;;17.91;100.00;99215.19;10256797;28;20047;-86
2023/10/25 18:58:17;;;;;;;0.17;0.17;;;;;;;17.83;100.00;99206.78;10278862;28;20449;-86
2023/10/25 19:03:19;;;;;;;0.75;0.22;;;;;;;17.87;100.00;99216.19;10284663;28;20047;-85
2023/10/25 19:08:21;;;;;;;0.03;0.03;;;;;;;17.79;100.00;99212.97;10307490;28;20092;-84
2023/10/25 19:13:32;;;;;;;0.50;0.45;;;;;;;18.13;100.00;99214.56;10270364;28;20584;-84
2023/10/25 19:18:34;;;;;;;1.27;0.45;;;;;;;18.08;100.00;99219.91;10284882;28;20521;-83
2023/10/25 19:23:39;;;;;;;0.40;0.22;;;;;;;18.24;100.00;99228.09;10271220;28;20054;-86
2023/10/25 19:28:41;;;;;;;0.47;0.38;;;;;;;18.01;100.00;99232.28;10286323;28;20082;-85
2023/10/25 19:33:43;;;;;;;0.25;0.20;;;;;;;18.14;100.00;99229.28;10271223;28;20534;-86
2023/10/25 19:38:45;;;;;;;0.40;0.28;;;;;;;18.03;100.00;99227.88;10268557;28;20053;-86
2023/10/25 19:43:47;;;;;;;0.20;0.20;;;;;;;17.66;100.00;99226.38;10285905;28;20054;-87
2023/10/25 19:48:48;;;;;;;0.45;0.15;;;;;;;18.48;100.00;99222.97;10270265;28;20101;-86
2023/10/25 19:53:50;;;;;;;0.20;0.20;;;;;;;18.14;100.00;99232.75;10287077;28;20054;-86
2023/10/25 19:58:51;;;;;;;0.43;0.43;;;;;;;18.10;100.00;99235.50;10270252;28;20054;-86
2023/10/25 20:03:53;;;;;;;0.52;0.22;;;;;;;18.94;100.00;99231.84;10269895;28;20059;-86
2023/10/25 20:08:56;;;;;;;0.88;0.65;;;;;;;17.75;100.00;99254.75;10286145;28;20391;-85
2023/10/25 20:13:58;;;;;;;0.10;0.10;;;;;;;18.25;100.00;99253.25;10285013;28;20050;-85
2023/10/25 20:19:01;;;;;;;1.15;0.60;;;;;;;17.98;100.00;99266.25;10285503;28;20518;-85
2023/10/25 20:24:02;;;;;;;0.10;0.10;;;;;;;17.52;100.00;99268.44;10287314;28;20050;-85
2023/10/25 20:29:04;;;;;;;0.15;0.15;;;;;;;18.04;100.00;99280.84;10285530;28;20133;-85
2023/10/25 20:34:06;;;;;;;0.10;0.10;;;;;;;17.89;100.00;99274.31;10269879;28;20083;-86
2023/10/25 20:39:07;;;;;;;0.28;0.25;;;;;;;18.14;100.00;99284.00;10284861;28;20506;-85
2023/10/25 20:44:09;;;;;;;0.75;0.52;;;;;;;17.98;100.00;99289.72;10277735;28;20051;-85
2023/10/25 20:49:11;;;;;;;0.47;0.10;;;;;;;17.68;100.00;99292.31;10281571;28;20047;-85
2023/10/25 20:54:12;;;;;;;0.10;0.10;;;;;;;17.58;100.00;99291.69;10284789;28;20497;-85
2023/10/25 20:59:14;;;;;;;0.10;0.10;;;;;;;18.18;100.00;99296.06;10285229;28;20117;-85
2023/10/25 21:04:15;;;;;;;0.75;0.20;;;;;;;17.74;100.00;99294.72;10298991;28;20039;-85
2023/10/25 21:09:17;;;;;;;0.60;0.35;;;;;;;18.31;100.00;99306.94;10278006;28;20086;-85
2023/10/25 21:14:19;;;;;;;0.35;0.30;;;;;;;17.79;100.00;99309.34;10282377;28;20133;-85
2023/10/25 21:19:20;;;;;;;0.08;0.08;;;;;;;17.68;100.00;99310.53;10279249;28;20043;-85
2023/10/25 21:24:22;;;;;;;0.10;0.10;;;;;;;17.35;100.00;99309.75;10268536;28;20047;-84
2023/10/25 21:29:24;;;;;;;0.85;0.43;;;;;;;17.74;100.00;99307.75;10292292;28;20047;-86
2023/10/25 21:34:26;;;;;;;0.20;0.20;;;;;;;17.90;100.00;99312.50;10275244;28;20113;-85
2023/10/25 21:39:27;;;;;;;0.75;0.47;;;;;;;17.80;100.00;99321.47;10291036;28;20039;-85
2023/10/25 21:44:29;;;;;;;0.00;0.00;;;;;;;18.12;100.00;99324.91;10291663;28;20778;-86
2023/10/25 21:49:30;;;;;;;0.20;0.20;;;;;;;18.41;100.00;99331.81;10288888;28;20045;-85
2023/10/25 21:54:32;;;;;;;0.68;0.68;;;;;;;18.32;100.00;99340.78;10275742;28;20059;-86
2023/10/25 21:59:34;;;;;;;0.57;0.30;;;;;;;17.91;100.00;99340.25;10280457;28;20067;-85
2023/10/25 22:04:54;;;;;;;0.83;0.80;;;;;;;17.91;100.00;99340.25;10292927;28;20042;-85
2023/10/25 22:09:56;;;;;;;0.00;0.00;;;;;;;17.98;100.00;99341.81;10291190;28;20139;-85
2023/10/25 22:14:57;;;;;;;0.32;0.32;;;;;;;18.19;100.00;99344.69;10283110;28;20054;-85
2023/10/25 22:19:59;;;;;;;1.00;0.40;;;;;;;18.45;100.00;99353.44;10273206;28;20507;-85
2023/10/25 22:25:01;;;;;;;0.10;0.10;;;;;;;18.73;100.00;99363.00;10291956;28;20526;-86
2023/10/25 22:30:04;;;;;;;0.30;0.30;;;;;;;18.69;100.00;99365.69;10275109;28;20058;-86
2023/10/25 22:35:06;;;;;;;0.10;0.10;;;;;;;18.51;100.00;99355.84;10292479;28;20058;-86
2023/10/25 22:40:08;;;;;;;2.38;0.25;;;;;;;18.57;100.00;99360.88;10294567;28;20047;-85
2023/10/25 22:45:10;;;;;;;0.13;0.13;;;;;;;18.66;100.00;99371.00;10291791;28;20538;-85
2023/10/25 22:50:12;;;;;;;0.68;0.30;;;;;;;18.86;100.00;99372.13;10291100;28;20047;-85
2023/10/25 22:55:14;;;;;;;0.73;0.50;;;;;;;18.43;100.00;99383.94;10267497;28;20055;-86
2023/10/25 23:00:16;;;;;;;0.20;0.15;;;;;;;18.78;100.00;99384.56;10273495;28;20602;-85
2023/10/25 23:05:17;;;;;;;0.03;0.03;;;;;;;18.58;100.00;99393.88;10273337;28;20089;-86
2023/10/25 23:10:19;;;;;;;0.30;0.20;;;;;;;18.35;100.00;99391.97;10274565;28;20053;-86